sensor_id;sensor_type;location;lat;lon;timestamp;temperature;humidity
8527;DHT22;4301;48.362;8.478;2023-02-04T00:02:01;4.00;99.90
8527;DHT22;4301;48.362;8.478;2023-02-04T00:04:28;4.00;99.90
8527;DHT22;4301;48.362;8.478;2023-02-04T00:06:54;4.10;99.90
8527;DHT22;4301;48.362;8.478;2023-02-04T00:09:21;4.00;99.90
8527;DHT22;4301;48.362;8.478;2023-02-04T00:11:48;4.10;99.90
8527;DHT22;4301;48.362;8.478;2023-02-04T00:14:15;4.10;99.90
8527;DHT22;4301;48.362;8.478;2023-02-04T00:16:42;4.10;99.90
8527;DHT22;4301;48.362;8.478;2023-02-04T00:19:10;4.10;99.90
8527;DHT22;4301;48.362;8.478;2023-02-04T00:21:37;4.10;99.90
8527;DHT22;4301;48.362;8.478;2023-02-04T00:24:05;4.10;99.90
8527;DHT22;4301;48.362;8.478;2023-02-04T00:26:31;4.10;99.90
8527;DHT22;4301;48.362;8.478;2023-02-04T00:28:58;4.10;99.90
8527;DHT22;4301;48.362;8.478;2023-02-04T00:31:25;4.10;99.90
8527;DHT22;4301;48.362;8.478;2023-02-04T00:33:52;4.20;99.90
8527;DHT22;4301;48.362;8.478;2023-02-04T00:36:20;4.10;99.90
8527;DHT22;4301;48.362;8.478;2023-02-04T00:38:47;4.20;99.90
8527;DHT22;4301;48.362;8.478;2023-02-04T00:41:14;4.10;99.90
8527;DHT22;4301;48.362;8.478;2023-02-04T00:43:41;4.20;99.90
8527;DHT22;4301;48.362;8.478;2023-02-04T00:46:08;4.20;99.90
8527;DHT22;4301;48.362;8.478;2023-02-04T00:48:35;4.20;99.90
8527;DHT22;4301;48.362;8.478;2023-02-04T00:51:02;4.20;99.90
8527;DHT22;4301;48.362;8.478;2023-02-04T00:53:30;4.30;99.90
8527;DHT22;4301;48.362;8.478;2023-02-04T00:55:57;4.30;99.90
8527;DHT22;4301;48.362;8.478;2023-02-04T00:58:24;4.30;99.90
8527;DHT22;4301;48.362;8.478;2023-02-04T01:00:51;4.30;99.90
8527;DHT22;4301;48.362;8.478;2023-02-04T01:03:18;4.30;99.90
8527;DHT22;4301;48.362;8.478;2023-02-04T01:05:45;4.40;99.90
8527;DHT22;4301;48.362;8.478;2023-02-04T01:08:12;4.30;99.90
8527;DHT22;4301;48.362;8.478;2023-02-04T01:10:40;4.30;99.90
8527;DHT22;4301;48.362;8.478;2023-02-04T01:13:07;4.30;99.90
8527;DHT22;4301;48.362;8.478;2023-02-04T01:15:34;4.40;99.90
8527;DHT22;4301;48.362;8.478;2023-02-04T01:18:02;4.40;99.90
8527;DHT22;4301;48.362;8.478;2023-02-04T01:20:28;4.40;99.90
8527;DHT22;4301;48.362;8.478;2023-02-04T01:22:55;4.40;99.90
8527;DHT22;4301;48.362;8.478;2023-02-04T01:25:22;4.40;99.90
8527;DHT22;4301;48.362;8.478;2023-02-04T01:27:50;4.40;99.90
8527;DHT22;4301;48.362;8.478;2023-02-04T01:30:17;4.40;99.90
8527;DHT22;4301;48.362;8.478;2023-02-04T01:32:44;4.40;99.90
8527;DHT22;4301;48.362;8.478;2023-02-04T01:35:11;4.40;99.90
8527;DHT22;4301;48.362;8.478;2023-02-04T01:37:38;4.40;99.90
8527;DHT22;4301;48.362;8.478;2023-02-04T01:40:06;4.40;99.90
8527;DHT22;4301;48.362;8.478;2023-02-04T01:42:33;4.40;99.90
8527;DHT22;4301;48.362;8.478;2023-02-04T01:45:02;4.40;99.90
8527;DHT22;4301;48.362;8.478;2023-02-04T01:47:30;4.50;99.90
8527;DHT22;4301;48.362;8.478;2023-02-04T01:49:57;4.40;99.90
8527;DHT22;4301;48.362;8.478;2023-02-04T01:52:33;4.40;99.90
8527;DHT22;4301;48.362;8.478;2023-02-04T01:55:01;4.40;99.90
8527;DHT22;4301;48.362;8.478;2023-02-04T01:57:28;4.50;99.90
8527;DHT22;4301;48.362;8.478;2023-02-04T01:59:55;4.40;99.90
8527;DHT22;4301;48.362;8.478;2023-02-04T02:02:44;4.50;99.90
8527;DHT22;4301;48.362;8.478;2023-02-04T02:05:14;4.50;99.90
8527;DHT22;4301;48.362;8.478;2023-02-04T02:07:42;4.50;99.90
8527;DHT22;4301;48.362;8.478;2023-02-04T02:10:11;4.50;99.90
8527;DHT22;4301;48.362;8.478;2023-02-04T02:12:39;4.50;99.90
8527;DHT22;4301;48.362;8.478;2023-02-04T02:15:08;4.40;99.90
8527;DHT22;4301;48.362;8.478;2023-02-04T02:17:35;4.40;99.90
8527;DHT22;4301;48.362;8.478;2023-02-04T02:20:05;4.40;99.90
8527;DHT22;4301;48.362;8.478;2023-02-04T02:22:35;4.40;99.90
8527;DHT22;4301;48.362;8.478;2023-02-04T02:25:09;4.40;99.90
8527;DHT22;4301;48.362;8.478;2023-02-04T02:27:36;4.50;99.90
8527;DHT22;4301;48.362;8.478;2023-02-04T02:30:05;4.40;99.90
8527;DHT22;4301;48.362;8.478;2023-02-04T02:32:32;4.50;99.90
8527;DHT22;4301;48.362;8.478;2023-02-04T02:34:59;4.50;99.90
8527;DHT22;4301;48.362;8.478;2023-02-04T02:37:26;4.50;99.90
8527;DHT22;4301;48.362;8.478;2023-02-04T02:39:53;4.40;99.90
8527;DHT22;4301;48.362;8.478;2023-02-04T02:42:21;4.40;99.90
8527;DHT22;4301;48.362;8.478;2023-02-04T02:44:49;4.40;99.90
8527;DHT22;4301;48.362;8.478;2023-02-04T02:47:18;4.40;99.90
8527;DHT22;4301;48.362;8.478;2023-02-04T02:49:46;4.40;99.90
8527;DHT22;4301;48.362;8.478;2023-02-04T02:52:15;4.40;99.90
8527;DHT22;4301;48.362;8.478;2023-02-04T02:54:42;4.50;99.90
8527;DHT22;4301;48.362;8.478;2023-02-04T02:57:13;4.40;99.90
8527;DHT22;4301;48.362;8.478;2023-02-04T02:59:42;4.40;99.90
8527;DHT22;4301;48.362;8.478;2023-02-04T03:02:10;4.40;99.90
8527;DHT22;4301;48.362;8.478;2023-02-04T03:04:41;4.40;99.90
8527;DHT22;4301;48.362;8.478;2023-02-04T03:07:10;4.30;99.90
8527;DHT22;4301;48.362;8.478;2023-02-04T03:09:38;4.40;99.90
8527;DHT22;4301;48.362;8.478;2023-02-04T03:12:05;4.50;99.90
8527;DHT22;4301;48.362;8.478;2023-02-04T03:14:33;4.40;99.90
8527;DHT22;4301;48.362;8.478;2023-02-04T03:17:05;4.50;99.90
8527;DHT22;4301;48.362;8.478;2023-02-04T03:19:33;4.50;99.90
8527;DHT22;4301;48.362;8.478;2023-02-04T03:22:01;4.40;99.90
8527;DHT22;4301;48.362;8.478;2023-02-04T03:24:29;4.50;99.90
8527;DHT22;4301;48.362;8.478;2023-02-04T03:26:56;4.50;99.90
8527;DHT22;4301;48.362;8.478;2023-02-04T03:29:23;4.50;99.90
8527;DHT22;4301;48.362;8.478;2023-02-04T03:31:49;4.50;99.90
8527;DHT22;4301;48.362;8.478;2023-02-04T03:34:18;4.50;99.90
8527;DHT22;4301;48.362;8.478;2023-02-04T03:36:45;4.50;99.90
8527;DHT22;4301;48.362;8.478;2023-02-04T03:39:11;4.50;99.90
8527;DHT22;4301;48.362;8.478;2023-02-04T03:41:38;4.40;99.90
8527;DHT22;4301;48.362;8.478;2023-02-04T03:44:05;4.50;99.90
8527;DHT22;4301;48.362;8.478;2023-02-04T03:46:32;4.50;99.90
8527;DHT22;4301;48.362;8.478;2023-02-04T03:48:59;4.50;99.90
8527;DHT22;4301;48.362;8.478;2023-02-04T03:51:27;4.50;99.90
8527;DHT22;4301;48.362;8.478;2023-02-04T03:53:54;4.50;99.90
8527;DHT22;4301;48.362;8.478;2023-02-04T03:56:21;4.40;99.90
8527;DHT22;4301;48.362;8.478;2023-02-04T03:58:48;4.50;99.90
8527;DHT22;4301;48.362;8.478;2023-02-04T04:01:15;4.50;99.90
8527;DHT22;4301;48.362;8.478;2023-02-04T04:03:42;4.50;99.90
8527;DHT22;4301;48.362;8.478;2023-02-04T04:06:09;4.50;99.90
8527;DHT22;4301;48.362;8.478;2023-02-04T04:08:38;4.50;99.90
8527;DHT22;4301;48.362;8.478;2023-02-04T04:11:05;4.50;99.90
8527;DHT22;4301;48.362;8.478;2023-02-04T04:13:31;4.50;99.90
8527;DHT22;4301;48.362;8.478;2023-02-04T04:15:58;4.50;99.90
8527;DHT22;4301;48.362;8.478;2023-02-04T04:18:25;4.50;99.90
8527;DHT22;4301;48.362;8.478;2023-02-04T04:20:52;4.50;99.90
8527;DHT22;4301;48.362;8.478;2023-02-04T04:23:19;4.50;99.90
8527;DHT22;4301;48.362;8.478;2023-02-04T04:25:47;4.50;99.90
8527;DHT22;4301;48.362;8.478;2023-02-04T04:28:14;4.50;99.90
8527;DHT22;4301;48.362;8.478;2023-02-04T04:30:41;4.50;99.90
8527;DHT22;4301;48.362;8.478;2023-02-04T04:33:08;4.50;99.90
8527;DHT22;4301;48.362;8.478;2023-02-04T04:35:35;4.50;99.90
8527;DHT22;4301;48.362;8.478;2023-02-04T04:38:02;4.50;99.90
8527;DHT22;4301;48.362;8.478;2023-02-04T04:40:29;4.50;99.90
8527;DHT22;4301;48.362;8.478;2023-02-04T04:42:57;4.50;99.90
8527;DHT22;4301;48.362;8.478;2023-02-04T04:45:24;4.50;99.90
8527;DHT22;4301;48.362;8.478;2023-02-04T04:47:51;4.50;99.90
8527;DHT22;4301;48.362;8.478;2023-02-04T04:50:18;4.50;99.90
8527;DHT22;4301;48.362;8.478;2023-02-04T04:52:45;4.50;99.90
8527;DHT22;4301;48.362;8.478;2023-02-04T04:55:12;4.50;99.90
8527;DHT22;4301;48.362;8.478;2023-02-04T04:57:39;4.50;99.90
8527;DHT22;4301;48.362;8.478;2023-02-04T05:00:09;4.40;99.90
8527;DHT22;4301;48.362;8.478;2023-02-04T05:02:37;4.50;99.90
8527;DHT22;4301;48.362;8.478;2023-02-04T05:05:05;4.40;99.90
8527;DHT22;4301;48.362;8.478;2023-02-04T05:07:32;4.50;99.90
8527;DHT22;4301;48.362;8.478;2023-02-04T05:09:58;4.50;99.90
8527;DHT22;4301;48.362;8.478;2023-02-04T05:12:25;4.40;99.90
8527;DHT22;4301;48.362;8.478;2023-02-04T05:14:52;4.40;99.90
8527;DHT22;4301;48.362;8.478;2023-02-04T05:17:20;4.40;99.90
8527;DHT22;4301;48.362;8.478;2023-02-04T05:19:47;4.40;99.90
8527;DHT22;4301;48.362;8.478;2023-02-04T05:22:14;4.40;99.90
8527;DHT22;4301;48.362;8.478;2023-02-04T05:24:41;4.30;99.90
8527;DHT22;4301;48.362;8.478;2023-02-04T05:27:08;4.40;99.90
8527;DHT22;4301;48.362;8.478;2023-02-04T05:29:35;4.40;99.90
8527;DHT22;4301;48.362;8.478;2023-02-04T05:32:02;4.40;99.90
8527;DHT22;4301;48.362;8.478;2023-02-04T05:34:31;4.30;99.90
8527;DHT22;4301;48.362;8.478;2023-02-04T05:36:57;4.30;99.90
8527;DHT22;4301;48.362;8.478;2023-02-04T05:39:24;4.30;99.90
8527;DHT22;4301;48.362;8.478;2023-02-04T05:41:51;4.30;99.90
8527;DHT22;4301;48.362;8.478;2023-02-04T05:44:18;4.30;99.90
8527;DHT22;4301;48.362;8.478;2023-02-04T05:46:45;4.30;99.90
8527;DHT22;4301;48.362;8.478;2023-02-04T05:49:12;4.30;99.90
8527;DHT22;4301;48.362;8.478;2023-02-04T05:51:40;4.30;99.90
8527;DHT22;4301;48.362;8.478;2023-02-04T05:54:07;4.30;99.90
8527;DHT22;4301;48.362;8.478;2023-02-04T05:56:34;4.30;99.90
8527;DHT22;4301;48.362;8.478;2023-02-04T05:59:01;4.20;99.90
8527;DHT22;4301;48.362;8.478;2023-02-04T06:01:28;4.20;99.90
8527;DHT22;4301;48.362;8.478;2023-02-04T06:03:55;4.20;99.90
8527;DHT22;4301;48.362;8.478;2023-02-04T06:06:22;4.30;99.90
8527;DHT22;4301;48.362;8.478;2023-02-04T06:08:50;4.30;99.90
8527;DHT22;4301;48.362;8.478;2023-02-04T06:11:17;4.30;99.90
8527;DHT22;4301;48.362;8.478;2023-02-04T06:13:45;4.20;99.90
8527;DHT22;4301;48.362;8.478;2023-02-04T06:16:12;4.20;99.90
8527;DHT22;4301;48.362;8.478;2023-02-04T06:18:39;4.20;99.90
8527;DHT22;4301;48.362;8.478;2023-02-04T06:21:05;4.20;99.90
8527;DHT22;4301;48.362;8.478;2023-02-04T06:23:32;4.20;99.90
8527;DHT22;4301;48.362;8.478;2023-02-04T06:26:01;4.20;99.90
8527;DHT22;4301;48.362;8.478;2023-02-04T06:28:28;4.20;99.90
8527;DHT22;4301;48.362;8.478;2023-02-04T06:30:55;4.20;99.90
8527;DHT22;4301;48.362;8.478;2023-02-04T06:33:22;4.20;99.90
8527;DHT22;4301;48.362;8.478;2023-02-04T06:35:50;4.10;99.90
8527;DHT22;4301;48.362;8.478;2023-02-04T06:38:17;4.10;99.90
8527;DHT22;4301;48.362;8.478;2023-02-04T06:40:44;4.10;99.90
8527;DHT22;4301;48.362;8.478;2023-02-04T06:43:15;4.20;99.90
8527;DHT22;4301;48.362;8.478;2023-02-04T06:45:42;4.20;99.90
8527;DHT22;4301;48.362;8.478;2023-02-04T06:48:08;4.20;99.90
8527;DHT22;4301;48.362;8.478;2023-02-04T06:50:35;4.20;99.90
8527;DHT22;4301;48.362;8.478;2023-02-04T06:53:02;4.20;99.90
8527;DHT22;4301;48.362;8.478;2023-02-04T06:55:29;4.20;99.90
8527;DHT22;4301;48.362;8.478;2023-02-04T06:57:56;4.20;99.90
8527;DHT22;4301;48.362;8.478;2023-02-04T07:00:25;4.20;99.90
8527;DHT22;4301;48.362;8.478;2023-02-04T07:02:52;4.20;99.90
8527;DHT22;4301;48.362;8.478;2023-02-04T07:05:19;4.20;99.90
8527;DHT22;4301;48.362;8.478;2023-02-04T07:07:45;4.20;99.90
8527;DHT22;4301;48.362;8.478;2023-02-04T07:10:12;4.20;99.90
8527;DHT22;4301;48.362;8.478;2023-02-04T07:12:41;4.20;99.90
8527;DHT22;4301;48.362;8.478;2023-02-04T07:15:09;4.20;99.90
8527;DHT22;4301;48.362;8.478;2023-02-04T07:17:37;4.10;99.90
8527;DHT22;4301;48.362;8.478;2023-02-04T07:20:04;4.10;99.90
8527;DHT22;4301;48.362;8.478;2023-02-04T07:22:31;4.10;99.90
8527;DHT22;4301;48.362;8.478;2023-02-04T07:24:58;4.10;99.90
8527;DHT22;4301;48.362;8.478;2023-02-04T07:27:25;4.10;99.90
8527;DHT22;4301;48.362;8.478;2023-02-04T07:29:52;4.20;99.90
8527;DHT22;4301;48.362;8.478;2023-02-04T07:32:19;4.20;99.90
8527;DHT22;4301;48.362;8.478;2023-02-04T07:34:47;4.10;99.90
8527;DHT22;4301;48.362;8.478;2023-02-04T07:37:14;4.10;99.90
8527;DHT22;4301;48.362;8.478;2023-02-04T07:39:41;4.10;99.90
8527;DHT22;4301;48.362;8.478;2023-02-04T07:42:08;4.10;99.90
8527;DHT22;4301;48.362;8.478;2023-02-04T07:44:35;4.10;99.90
8527;DHT22;4301;48.362;8.478;2023-02-04T07:47:03;4.10;99.90
8527;DHT22;4301;48.362;8.478;2023-02-04T07:49:30;4.10;99.90
8527;DHT22;4301;48.362;8.478;2023-02-04T07:51:58;4.10;99.90
8527;DHT22;4301;48.362;8.478;2023-02-04T07:54:25;4.20;99.90
8527;DHT22;4301;48.362;8.478;2023-02-04T07:56:52;4.20;99.90
8527;DHT22;4301;48.362;8.478;2023-02-04T07:59:19;4.20;99.90
8527;DHT22;4301;48.362;8.478;2023-02-04T08:01:45;4.20;99.90
8527;DHT22;4301;48.362;8.478;2023-02-04T08:04:14;4.30;99.90
8527;DHT22;4301;48.362;8.478;2023-02-04T08:06:41;4.30;99.90
8527;DHT22;4301;48.362;8.478;2023-02-04T08:09:09;4.30;99.90
8527;DHT22;4301;48.362;8.478;2023-02-04T08:11:36;4.30;99.90
8527;DHT22;4301;48.362;8.478;2023-02-04T08:14:03;4.30;99.90
8527;DHT22;4301;48.362;8.478;2023-02-04T08:16:30;4.30;99.90
8527;DHT22;4301;48.362;8.478;2023-02-04T08:18:57;4.30;99.90
8527;DHT22;4301;48.362;8.478;2023-02-04T08:21:24;4.30;99.90
8527;DHT22;4301;48.362;8.478;2023-02-04T08:23:50;4.30;99.90
8527;DHT22;4301;48.362;8.478;2023-02-04T08:26:19;4.40;99.90
8527;DHT22;4301;48.362;8.478;2023-02-04T08:28:46;4.50;99.90
8527;DHT22;4301;48.362;8.478;2023-02-04T08:31:13;4.50;99.90
8527;DHT22;4301;48.362;8.478;2023-02-04T08:33:40;4.60;99.90
8527;DHT22;4301;48.362;8.478;2023-02-04T08:36:07;4.70;99.90
8527;DHT22;4301;48.362;8.478;2023-02-04T08:38:34;4.60;99.90
8527;DHT22;4301;48.362;8.478;2023-02-04T08:41:01;4.60;99.90
8527;DHT22;4301;48.362;8.478;2023-02-04T08:43:29;4.70;99.90
8527;DHT22;4301;48.362;8.478;2023-02-04T08:45:56;4.80;99.90
8527;DHT22;4301;48.362;8.478;2023-02-04T08:48:23;4.80;99.90
8527;DHT22;4301;48.362;8.478;2023-02-04T08:50:50;4.80;99.90
8527;DHT22;4301;48.362;8.478;2023-02-04T08:53:17;5.00;99.90
8527;DHT22;4301;48.362;8.478;2023-02-04T08:55:44;4.90;99.90
8527;DHT22;4301;48.362;8.478;2023-02-04T08:58:11;4.90;99.90
8527;DHT22;4301;48.362;8.478;2023-02-04T09:00:39;5.00;99.90
8527;DHT22;4301;48.362;8.478;2023-02-04T09:03:06;5.20;99.90
8527;DHT22;4301;48.362;8.478;2023-02-04T09:05:33;5.00;99.90
8527;DHT22;4301;48.362;8.478;2023-02-04T09:08:00;5.20;99.90
8527;DHT22;4301;48.362;8.478;2023-02-04T09:10:27;5.30;99.90
8527;DHT22;4301;48.362;8.478;2023-02-04T09:12:54;5.40;99.90
8527;DHT22;4301;48.362;8.478;2023-02-04T09:15:21;5.30;99.90
8527;DHT22;4301;48.362;8.478;2023-02-04T09:17:50;5.40;99.90
8527;DHT22;4301;48.362;8.478;2023-02-04T09:20:18;5.50;99.90
8527;DHT22;4301;48.362;8.478;2023-02-04T09:22:46;5.70;99.90
8527;DHT22;4301;48.362;8.478;2023-02-04T09:25:15;5.70;99.90
8527;DHT22;4301;48.362;8.478;2023-02-04T09:27:41;5.90;99.90
8527;DHT22;4301;48.362;8.478;2023-02-04T09:30:09;5.80;99.90
8527;DHT22;4301;48.362;8.478;2023-02-04T09:32:36;5.80;81.00
8527;DHT22;4301;48.362;8.478;2023-02-04T09:35:05;5.90;80.80
8527;DHT22;4301;48.362;8.478;2023-02-04T09:37:32;6.10;84.30
8527;DHT22;4301;48.362;8.478;2023-02-04T09:39:59;6.10;81.30
8527;DHT22;4301;48.362;8.478;2023-02-04T09:42:27;6.10;67.40
8527;DHT22;4301;48.362;8.478;2023-02-04T09:44:54;6.20;1.00
8527;DHT22;4301;48.362;8.478;2023-02-04T09:47:23;6.40;1.00
8527;DHT22;4301;48.362;8.478;2023-02-04T09:49:50;6.40;1.00
8527;DHT22;4301;48.362;8.478;2023-02-04T09:52:19;6.50;1.00
8527;DHT22;4301;48.362;8.478;2023-02-04T09:54:49;6.60;5.00
8527;DHT22;4301;48.362;8.478;2023-02-04T09:57:18;6.60;1.00
8527;DHT22;4301;48.362;8.478;2023-02-04T09:59:45;6.70;9.60
8527;DHT22;4301;48.362;8.478;2023-02-04T10:02:20;6.80;1.00
8527;DHT22;4301;48.362;8.478;2023-02-04T10:04:49;6.50;1.00
8527;DHT22;4301;48.362;8.478;2023-02-04T10:07:19;6.30;1.00
8527;DHT22;4301;48.362;8.478;2023-02-04T10:09:50;6.10;1.00
8527;DHT22;4301;48.362;8.478;2023-02-04T10:12:17;6.00;14.50
8527;DHT22;4301;48.362;8.478;2023-02-04T10:14:44;5.80;1.00
8527;DHT22;4301;48.362;8.478;2023-02-04T10:17:12;5.90;1.00
8527;DHT22;4301;48.362;8.478;2023-02-04T10:19:43;5.90;1.00
8527;DHT22;4301;48.362;8.478;2023-02-04T10:22:15;6.20;1.00
8527;DHT22;4301;48.362;8.478;2023-02-04T10:24:44;6.40;99.90
8527;DHT22;4301;48.362;8.478;2023-02-04T10:27:12;6.40;1.00
8527;DHT22;4301;48.362;8.478;2023-02-04T10:29:42;6.50;1.00
8527;DHT22;4301;48.362;8.478;2023-02-04T10:32:29;6.60;99.90
8527;DHT22;4301;48.362;8.478;2023-02-04T10:34:57;6.40;99.90
8527;DHT22;4301;48.362;8.478;2023-02-04T10:37:25;6.30;1.00
8527;DHT22;4301;48.362;8.478;2023-02-04T10:39:53;6.20;1.00
8527;DHT22;4301;48.362;8.478;2023-02-04T10:42:22;6.20;1.00
8527;DHT22;4301;48.362;8.478;2023-02-04T10:44:50;6.30;1.00
8527;DHT22;4301;48.362;8.478;2023-02-04T10:47:19;6.30;1.00
8527;DHT22;4301;48.362;8.478;2023-02-04T10:49:54;6.30;1.00
8527;DHT22;4301;48.362;8.478;2023-02-04T10:52:25;6.40;1.00
8527;DHT22;4301;48.362;8.478;2023-02-04T10:54:55;6.30;1.00
8527;DHT22;4301;48.362;8.478;2023-02-04T10:57:25;6.30;1.00
8527;DHT22;4301;48.362;8.478;2023-02-04T10:59:54;6.20;1.00
8527;DHT22;4301;48.362;8.478;2023-02-04T11:02:35;6.10;1.00
8527;DHT22;4301;48.362;8.478;2023-02-04T11:05:05;6.20;1.00
8527;DHT22;4301;48.362;8.478;2023-02-04T11:07:36;6.30;1.00
8527;DHT22;4301;48.362;8.478;2023-02-04T11:10:05;6.30;99.90
8527;DHT22;4301;48.362;8.478;2023-02-04T11:12:38;6.40;1.00
8527;DHT22;4301;48.362;8.478;2023-02-04T11:15:32;6.30;9.20
8527;DHT22;4301;48.362;8.478;2023-02-04T11:18:02;6.40;99.90
8527;DHT22;4301;48.362;8.478;2023-02-04T11:20:31;6.70;99.90
8527;DHT22;4301;48.362;8.478;2023-02-04T11:23:16;6.70;1.00
8527;DHT22;4301;48.362;8.478;2023-02-04T11:25:44;6.80;1.00
8527;DHT22;4301;48.362;8.478;2023-02-04T11:28:13;6.70;1.00
8527;DHT22;4301;48.362;8.478;2023-02-04T11:30:40;6.80;1.00
8527;DHT22;4301;48.362;8.478;2023-02-04T11:33:22;6.80;99.90
8527;DHT22;4301;48.362;8.478;2023-02-04T11:36:02;7.00;99.90
8527;DHT22;4301;48.362;8.478;2023-02-04T11:38:30;7.20;99.90
8527;DHT22;4301;48.362;8.478;2023-02-04T11:40:59;7.10;99.90
8527;DHT22;4301;48.362;8.478;2023-02-04T11:43:26;7.30;1.00
8527;DHT22;4301;48.362;8.478;2023-02-04T11:46:03;7.20;65.00
8527;DHT22;4301;48.362;8.478;2023-02-04T11:48:31;7.30;99.90
8527;DHT22;4301;48.362;8.478;2023-02-04T11:50:59;7.50;99.90
8527;DHT22;4301;48.362;8.478;2023-02-04T11:53:28;7.90;99.90
8527;DHT22;4301;48.362;8.478;2023-02-04T11:55:56;8.90;1.00
8527;DHT22;4301;48.362;8.478;2023-02-04T11:58:25;10.30;99.90
8527;DHT22;4301;48.362;8.478;2023-02-04T12:00:55;12.90;1.00
8527;DHT22;4301;48.362;8.478;2023-02-04T12:03:24;14.20;99.90
8527;DHT22;4301;48.362;8.478;2023-02-04T12:05:52;15.50;99.90
8527;DHT22;4301;48.362;8.478;2023-02-04T12:08:30;15.30;99.90
8527;DHT22;4301;48.362;8.478;2023-02-04T12:11:02;15.60;99.90
8527;DHT22;4301;48.362;8.478;2023-02-04T12:13:31;14.10;99.90
8527;DHT22;4301;48.362;8.478;2023-02-04T12:16:00;12.80;99.90
8527;DHT22;4301;48.362;8.478;2023-02-04T12:18:27;12.00;99.90
8527;DHT22;4301;48.362;8.478;2023-02-04T12:20:55;13.20;99.90
8527;DHT22;4301;48.362;8.478;2023-02-04T12:23:22;13.50;99.90
8527;DHT22;4301;48.362;8.478;2023-02-04T12:25:50;13.40;99.90
8527;DHT22;4301;48.362;8.478;2023-02-04T12:28:17;13.30;99.90
8527;DHT22;4301;48.362;8.478;2023-02-04T12:30:45;12.00;99.90
8527;DHT22;4301;48.362;8.478;2023-02-04T12:33:12;11.80;99.90
8527;DHT22;4301;48.362;8.478;2023-02-04T12:35:39;13.40;99.90
8527;DHT22;4301;48.362;8.478;2023-02-04T12:38:06;14.80;99.90
8527;DHT22;4301;48.362;8.478;2023-02-04T12:40:33;16.00;99.90
8527;DHT22;4301;48.362;8.478;2023-02-04T12:43:00;16.40;99.90
8527;DHT22;4301;48.362;8.478;2023-02-04T12:45:27;15.40;99.90
8527;DHT22;4301;48.362;8.478;2023-02-04T12:47:56;14.70;96.70
8527;DHT22;4301;48.362;8.478;2023-02-04T12:50:23;13.60;99.30
8527;DHT22;4301;48.362;8.478;2023-02-04T12:52:52;12.90;99.90
8527;DHT22;4301;48.362;8.478;2023-02-04T12:55:19;13.00;99.90
8527;DHT22;4301;48.362;8.478;2023-02-04T12:57:47;13.10;99.90
8527;DHT22;4301;48.362;8.478;2023-02-04T13:00:15;13.80;99.90
8527;DHT22;4301;48.362;8.478;2023-02-04T13:02:43;14.80;99.90
8527;DHT22;4301;48.362;8.478;2023-02-04T13:05:12;14.80;99.90
8527;DHT22;4301;48.362;8.478;2023-02-04T13:07:39;14.90;99.20
8527;DHT22;4301;48.362;8.478;2023-02-04T13:10:07;15.50;99.90
8527;DHT22;4301;48.362;8.478;2023-02-04T13:12:34;15.00;76.00
8527;DHT22;4301;48.362;8.478;2023-02-04T13:15:01;15.40;91.50
8527;DHT22;4301;48.362;8.478;2023-02-04T13:17:28;17.00;70.50
8527;DHT22;4301;48.362;8.478;2023-02-04T13:19:55;16.80;67.40
8527;DHT22;4301;48.362;8.478;2023-02-04T13:22:23;17.10;64.70
8527;DHT22;4301;48.362;8.478;2023-02-04T13:24:50;17.80;44.10
8527;DHT22;4301;48.362;8.478;2023-02-04T13:27:17;16.70;42.10
8527;DHT22;4301;48.362;8.478;2023-02-04T13:29:44;15.20;66.40
8527;DHT22;4301;48.362;8.478;2023-02-04T13:32:11;16.10;66.70
8527;DHT22;4301;48.362;8.478;2023-02-04T13:34:38;17.30;53.50
8527;DHT22;4301;48.362;8.478;2023-02-04T13:37:04;16.60;33.30
8527;DHT22;4301;48.362;8.478;2023-02-04T13:39:33;15.20;49.80
8527;DHT22;4301;48.362;8.478;2023-02-04T13:42:00;13.90;28.10
8527;DHT22;4301;48.362;8.478;2023-02-04T13:44:27;12.50;52.10
8527;DHT22;4301;48.362;8.478;2023-02-04T13:46:54;13.40;71.00
8527;DHT22;4301;48.362;8.478;2023-02-04T13:49:20;14.70;56.20
8527;DHT22;4301;48.362;8.478;2023-02-04T13:51:47;14.40;47.90
8527;DHT22;4301;48.362;8.478;2023-02-04T13:54:14;13.20;50.80
8527;DHT22;4301;48.362;8.478;2023-02-04T13:56:43;14.10;59.10
8527;DHT22;4301;48.362;8.478;2023-02-04T13:59:09;15.10;47.00
8527;DHT22;4301;48.362;8.478;2023-02-04T14:01:36;16.50;28.50
8527;DHT22;4301;48.362;8.478;2023-02-04T14:04:04;16.00;15.90
8527;DHT22;4301;48.362;8.478;2023-02-04T14:06:31;16.20;12.90
8527;DHT22;4301;48.362;8.478;2023-02-04T14:08:59;17.20;20.20
8527;DHT22;4301;48.362;8.478;2023-02-04T14:11:27;17.50;6.00
8527;DHT22;4301;48.362;8.478;2023-02-04T14:13:55;15.20;3.20
8527;DHT22;4301;48.362;8.478;2023-02-04T14:16:22;13.50;5.90
8527;DHT22;4301;48.362;8.478;2023-02-04T14:18:49;12.60;14.90
8527;DHT22;4301;48.362;8.478;2023-02-04T14:21:16;11.70;36.60
8527;DHT22;4301;48.362;8.478;2023-02-04T14:23:43;11.10;73.00
8527;DHT22;4301;48.362;8.478;2023-02-04T14:26:10;10.60;88.80
8527;DHT22;4301;48.362;8.478;2023-02-04T14:28:37;10.40;93.70
8527;DHT22;4301;48.362;8.478;2023-02-04T14:31:05;10.10;99.90
8527;DHT22;4301;48.362;8.478;2023-02-04T14:33:32;9.80;99.90
8527;DHT22;4301;48.362;8.478;2023-02-04T14:35:59;9.90;99.90
8527;DHT22;4301;48.362;8.478;2023-02-04T14:38:26;9.80;99.90
8527;DHT22;4301;48.362;8.478;2023-02-04T14:40:56;9.60;99.90
8527;DHT22;4301;48.362;8.478;2023-02-04T14:43:23;9.20;99.90
8527;DHT22;4301;48.362;8.478;2023-02-04T14:45:50;9.00;99.90
8527;DHT22;4301;48.362;8.478;2023-02-04T14:48:18;9.30;99.90
8527;DHT22;4301;48.362;8.478;2023-02-04T14:50:45;11.60;99.90
8527;DHT22;4301;48.362;8.478;2023-02-04T14:53:12;13.10;99.90
8527;DHT22;4301;48.362;8.478;2023-02-04T14:55:39;14.70;99.90
8527;DHT22;4301;48.362;8.478;2023-02-04T14:58:06;14.70;88.30
8527;DHT22;4301;48.362;8.478;2023-02-04T15:00:33;13.00;81.40
8527;DHT22;4301;48.362;8.478;2023-02-04T15:03:00;12.60;96.60
8527;DHT22;4301;48.362;8.478;2023-02-04T15:05:28;13.20;99.90
8527;DHT22;4301;48.362;8.478;2023-02-04T15:07:55;12.00;99.90
8527;DHT22;4301;48.362;8.478;2023-02-04T15:10:22;11.40;99.90
8527;DHT22;4301;48.362;8.478;2023-02-04T15:12:49;10.50;99.90
8527;DHT22;4301;48.362;8.478;2023-02-04T15:15:16;10.30;99.90
8527;DHT22;4301;48.362;8.478;2023-02-04T15:17:43;9.90;99.90
8527;DHT22;4301;48.362;8.478;2023-02-04T15:20:10;9.70;99.90
8527;DHT22;4301;48.362;8.478;2023-02-04T15:22:39;10.50;99.90
8527;DHT22;4301;48.362;8.478;2023-02-04T15:25:06;11.20;99.90
8527;DHT22;4301;48.362;8.478;2023-02-04T15:27:33;11.90;99.90
8527;DHT22;4301;48.362;8.478;2023-02-04T15:30:00;12.40;99.90
8527;DHT22;4301;48.362;8.478;2023-02-04T15:32:27;12.10;99.90
8527;DHT22;4301;48.362;8.478;2023-02-04T15:34:54;12.70;99.90
8527;DHT22;4301;48.362;8.478;2023-02-04T15:37:21;12.30;99.90
8527;DHT22;4301;48.362;8.478;2023-02-04T15:39:49;12.60;99.90
8527;DHT22;4301;48.362;8.478;2023-02-04T15:42:16;12.40;99.90
8527;DHT22;4301;48.362;8.478;2023-02-04T15:44:43;11.90;99.90
8527;DHT22;4301;48.362;8.478;2023-02-04T15:47:10;12.10;99.90
8527;DHT22;4301;48.362;8.478;2023-02-04T15:49:36;11.80;99.90
8527;DHT22;4301;48.362;8.478;2023-02-04T15:52:04;11.30;99.90
8527;DHT22;4301;48.362;8.478;2023-02-04T15:54:31;10.90;99.90
8527;DHT22;4301;48.362;8.478;2023-02-04T15:56:59;9.80;99.90
8527;DHT22;4301;48.362;8.478;2023-02-04T15:59:26;8.60;1.00
8527;DHT22;4301;48.362;8.478;2023-02-04T16:01:53;7.70;1.00
8527;DHT22;4301;48.362;8.478;2023-02-04T16:04:20;6.90;99.90
8527;DHT22;4301;48.362;8.478;2023-02-04T16:06:47;6.60;1.00
8527;DHT22;4301;48.362;8.478;2023-02-04T16:09:13;6.30;99.90
8527;DHT22;4301;48.362;8.478;2023-02-04T16:11:40;5.80;1.00
8527;DHT22;4301;48.362;8.478;2023-02-04T16:14:09;5.70;1.00
8527;DHT22;4301;48.362;8.478;2023-02-04T16:16:36;5.40;1.00
8527;DHT22;4301;48.362;8.478;2023-02-04T16:19:02;5.00;1.00
8527;DHT22;4301;48.362;8.478;2023-02-04T16:21:29;4.70;1.00